sensor_id;sensor_type;location;lat;lon;timestamp;P1;durP1;ratioP1;P2;durP2;ratioP2
19891;SDS011;10108;50.142;8.724;2022-10-16T00:01:05;14.82;;;10.32;;
19891;SDS011;10108;50.142;8.724;2022-10-16T00:03:37;13.38;;;10.45;;
19891;SDS011;10108;50.142;8.724;2022-10-16T00:06:04;12.10;;;10.40;;
19891;SDS011;10108;50.142;8.724;2022-10-16T00:08:31;12.40;;;10.98;;
19891;SDS011;10108;50.142;8.724;2022-10-16T00:10:58;12.00;;;10.68;;
19891;SDS011;10108;50.142;8.724;2022-10-16T00:13:25;12.73;;;10.65;;
19891;SDS011;10108;50.142;8.724;2022-10-16T00:15:54;12.50;;;10.15;;
19891;SDS011;10108;50.142;8.724;2022-10-16T00:18:21;12.75;;;10.95;;
19891;SDS011;10108;50.142;8.724;2022-10-16T00:20:48;11.80;;;10.48;;
19891;SDS011;10108;50.142;8.724;2022-10-16T00:23:14;12.07;;;10.70;;
19891;SDS011;10108;50.142;8.724;2022-10-16T00:25:40;13.32;;;11.43;;
19891;SDS011;10108;50.142;8.724;2022-10-16T00:28:06;13.63;;;11.25;;
19891;SDS011;10108;50.142;8.724;2022-10-16T00:30:32;15.18;;;11.18;;
19891;SDS011;10108;50.142;8.724;2022-10-16T00:32:58;12.77;;;11.15;;
19891;SDS011;10108;50.142;8.724;2022-10-16T00:35:24;16.98;;;11.07;;
19891;SDS011;10108;50.142;8.724;2022-10-16T00:37:51;14.15;;;11.30;;
19891;SDS011;10108;50.142;8.724;2022-10-16T00:40:17;14.40;;;10.90;;
19891;SDS011;10108;50.142;8.724;2022-10-16T00:42:43;15.27;;;11.20;;
19891;SDS011;10108;50.142;8.724;2022-10-16T00:45:09;12.60;;;10.77;;
19891;SDS011;10108;50.142;8.724;2022-10-16T00:47:37;12.93;;;11.18;;
19891;SDS011;10108;50.142;8.724;2022-10-16T00:50:29;16.35;;;11.10;;
19891;SDS011;10108;50.142;8.724;2022-10-16T00:52:55;13.20;;;10.50;;
19891;SDS011;10108;50.142;8.724;2022-10-16T00:55:22;12.13;;;10.18;;
19891;SDS011;10108;50.142;8.724;2022-10-16T00:57:49;14.98;;;10.63;;
19891;SDS011;10108;50.142;8.724;2022-10-16T01:00:17;12.30;;;10.80;;
19891;SDS011;10108;50.142;8.724;2022-10-16T01:02:52;11.13;;;9.93;;
19891;SDS011;10108;50.142;8.724;2022-10-16T01:05:20;12.00;;;10.18;;
19891;SDS011;10108;50.142;8.724;2022-10-16T01:08:04;10.93;;;9.82;;
19891;SDS011;10108;50.142;8.724;2022-10-16T01:10:52;13.23;;;10.40;;
19891;SDS011;10108;50.142;8.724;2022-10-16T01:18:26;10.82;;;9.60;;
19891;SDS011;10108;50.142;8.724;2022-10-16T01:21:20;13.10;;;9.95;;
19891;SDS011;10108;50.142;8.724;2022-10-16T01:26:50;12.85;;;10.05;;
19891;SDS011;10108;50.142;8.724;2022-10-16T01:29:39;12.00;;;9.95;;
19891;SDS011;10108;50.142;8.724;2022-10-16T01:32:40;11.90;;;9.55;;
19891;SDS011;10108;50.142;8.724;2022-10-16T01:40:21;13.60;;;10.40;;
19891;SDS011;10108;50.142;8.724;2022-10-16T01:42:52;11.68;;;10.48;;
19891;SDS011;10108;50.142;8.724;2022-10-16T01:45:24;11.68;;;10.30;;
19891;SDS011;10108;50.142;8.724;2022-10-16T01:47:53;11.55;;;10.35;;
19891;SDS011;10108;50.142;8.724;2022-10-16T01:50:20;11.50;;;10.30;;
19891;SDS011;10108;50.142;8.724;2022-10-16T01:52:48;12.63;;;10.38;;
19891;SDS011;10108;50.142;8.724;2022-10-16T01:55:19;11.70;;;10.50;;
19891;SDS011;10108;50.142;8.724;2022-10-16T01:57:52;11.90;;;10.55;;
19891;SDS011;10108;50.142;8.724;2022-10-16T02:00:20;16.00;;;10.52;;
19891;SDS011;10108;50.142;8.724;2022-10-16T02:02:48;11.40;;;9.82;;
19891;SDS011;10108;50.142;8.724;2022-10-16T02:05:20;14.15;;;10.13;;
19891;SDS011;10108;50.142;8.724;2022-10-16T02:07:49;11.00;;;9.90;;
19891;SDS011;10108;50.142;8.724;2022-10-16T02:10:15;11.75;;;9.98;;
19891;SDS011;10108;50.142;8.724;2022-10-16T02:12:43;13.43;;;10.27;;
19891;SDS011;10108;50.142;8.724;2022-10-16T02:15:15;13.88;;;9.63;;
19891;SDS011;10108;50.142;8.724;2022-10-16T02:17:41;13.45;;;9.43;;
19891;SDS011;10108;50.142;8.724;2022-10-16T02:20:08;10.85;;;9.75;;
19891;SDS011;10108;50.142;8.724;2022-10-16T02:22:42;11.13;;;9.65;;
19891;SDS011;10108;50.142;8.724;2022-10-16T02:25:17;10.40;;;9.30;;
19891;SDS011;10108;50.142;8.724;2022-10-16T02:27:52;13.65;;;9.60;;
19891;SDS011;10108;50.142;8.724;2022-10-16T02:33:07;10.57;;;9.07;;
19891;SDS011;10108;50.142;8.724;2022-10-16T02:35:36;10.07;;;9.07;;
19891;SDS011;10108;50.142;8.724;2022-10-16T02:38:03;9.88;;;8.70;;
19891;SDS011;10108;50.142;8.724;2022-10-16T02:40:31;11.50;;;8.82;;
19891;SDS011;10108;50.142;8.724;2022-10-16T02:42:57;10.05;;;9.05;;
19891;SDS011;10108;50.142;8.724;2022-10-16T02:45:24;10.63;;;8.95;;
19891;SDS011;10108;50.142;8.724;2022-10-16T02:47:50;10.85;;;9.07;;
19891;SDS011;10108;50.142;8.724;2022-10-16T02:50:17;9.90;;;8.90;;
19891;SDS011;10108;50.142;8.724;2022-10-16T02:52:43;12.07;;;9.30;;
19891;SDS011;10108;50.142;8.724;2022-10-16T02:55:09;10.40;;;9.40;;
19891;SDS011;10108;50.142;8.724;2022-10-16T02:57:35;13.63;;;9.50;;
19891;SDS011;10108;50.142;8.724;2022-10-16T03:00:06;11.05;;;9.70;;
19891;SDS011;10108;50.142;8.724;2022-10-16T03:02:34;10.93;;;9.73;;
19891;SDS011;10108;50.142;8.724;2022-10-16T03:05:00;11.40;;;10.18;;
19891;SDS011;10108;50.142;8.724;2022-10-16T03:07:26;10.95;;;9.85;;
19891;SDS011;10108;50.142;8.724;2022-10-16T03:09:52;11.45;;;10.25;;
19891;SDS011;10108;50.142;8.724;2022-10-16T03:12:20;12.23;;;10.20;;
19891;SDS011;10108;50.142;8.724;2022-10-16T03:14:46;15.52;;;10.50;;
19891;SDS011;10108;50.142;8.724;2022-10-16T03:17:12;11.40;;;9.63;;
19891;SDS011;10108;50.142;8.724;2022-10-16T03:19:39;11.40;;;10.30;;
19891;SDS011;10108;50.142;8.724;2022-10-16T03:22:05;11.98;;;10.43;;
19891;SDS011;10108;50.142;8.724;2022-10-16T03:24:31;11.32;;;10.13;;
19891;SDS011;10108;50.142;8.724;2022-10-16T03:26:57;11.05;;;9.95;;
19891;SDS011;10108;50.142;8.724;2022-10-16T03:29:23;11.45;;;10.02;;
19891;SDS011;10108;50.142;8.724;2022-10-16T03:31:51;11.35;;;10.20;;
19891;SDS011;10108;50.142;8.724;2022-10-16T03:34:17;11.10;;;10.00;;
19891;SDS011;10108;50.142;8.724;2022-10-16T03:36:43;11.57;;;10.05;;
19891;SDS011;10108;50.142;8.724;2022-10-16T03:39:09;10.88;;;9.73;;
19891;SDS011;10108;50.142;8.724;2022-10-16T03:41:35;10.57;;;9.48;;
19891;SDS011;10108;50.142;8.724;2022-10-16T03:44:02;10.65;;;9.65;;
19891;SDS011;10108;50.142;8.724;2022-10-16T03:46:28;11.07;;;9.80;;
19891;SDS011;10108;50.142;8.724;2022-10-16T03:48:55;10.80;;;9.80;;
19891;SDS011;10108;50.142;8.724;2022-10-16T03:51:21;12.35;;;9.80;;
19891;SDS011;10108;50.142;8.724;2022-10-16T03:53:47;12.95;;;9.55;;
19891;SDS011;10108;50.142;8.724;2022-10-16T03:56:13;10.40;;;9.40;;
19891;SDS011;10108;50.142;8.724;2022-10-16T03:58:39;10.18;;;9.18;;
19891;SDS011;10108;50.142;8.724;2022-10-16T04:01:05;10.48;;;9.20;;
19891;SDS011;10108;50.142;8.724;2022-10-16T04:03:32;10.35;;;9.27;;
19891;SDS011;10108;50.142;8.724;2022-10-16T04:05:58;10.50;;;9.50;;
19891;SDS011;10108;50.142;8.724;2022-10-16T04:08:24;10.70;;;9.60;;
19891;SDS011;10108;50.142;8.724;2022-10-16T04:10:50;11.30;;;9.15;;
19891;SDS011;10108;50.142;8.724;2022-10-16T04:13:16;10.40;;;9.30;;
19891;SDS011;10108;50.142;8.724;2022-10-16T04:15:44;13.35;;;9.50;;
19891;SDS011;10108;50.142;8.724;2022-10-16T04:18:10;10.30;;;9.25;;
19891;SDS011;10108;50.142;8.724;2022-10-16T04:20:37;10.90;;;9.80;;
19891;SDS011;10108;50.142;8.724;2022-10-16T04:23:03;10.20;;;9.20;;
19891;SDS011;10108;50.142;8.724;2022-10-16T04:25:30;10.48;;;9.38;;
19891;SDS011;10108;50.142;8.724;2022-10-16T04:27:56;10.77;;;9.68;;
19891;SDS011;10108;50.142;8.724;2022-10-16T04:30:22;10.13;;;9.02;;
19891;SDS011;10108;50.142;8.724;2022-10-16T04:32:49;9.82;;;8.85;;
19891;SDS011;10108;50.142;8.724;2022-10-16T04:35:17;10.05;;;9.05;;
19891;SDS011;10108;50.142;8.724;2022-10-16T04:37:44;10.45;;;9.30;;
19891;SDS011;10108;50.142;8.724;2022-10-16T04:40:10;10.55;;;9.15;;
19891;SDS011;10108;50.142;8.724;2022-10-16T04:42:36;10.02;;;9.02;;
19891;SDS011;10108;50.142;8.724;2022-10-16T04:45:03;11.90;;;8.70;;
19891;SDS011;10108;50.142;8.724;2022-10-16T04:47:30;11.73;;;9.00;;
19891;SDS011;10108;50.142;8.724;2022-10-16T04:49:56;11.90;;;9.40;;
19891;SDS011;10108;50.142;8.724;2022-10-16T04:52:22;10.43;;;9.43;;
19891;SDS011;10108;50.142;8.724;2022-10-16T04:54:50;10.40;;;9.30;;
19891;SDS011;10108;50.142;8.724;2022-10-16T04:57:16;10.32;;;9.15;;
19891;SDS011;10108;50.142;8.724;2022-10-16T04:59:43;10.23;;;9.15;;
19891;SDS011;10108;50.142;8.724;2022-10-16T05:02:09;10.50;;;9.30;;
19891;SDS011;10108;50.142;8.724;2022-10-16T05:04:35;10.48;;;9.38;;
19891;SDS011;10108;50.142;8.724;2022-10-16T05:07:01;10.40;;;9.38;;
19891;SDS011;10108;50.142;8.724;2022-10-16T05:09:27;11.27;;;9.30;;
19891;SDS011;10108;50.142;8.724;2022-10-16T05:11:53;10.05;;;9.10;;
19891;SDS011;10108;50.142;8.724;2022-10-16T05:14:19;10.45;;;9.38;;
19891;SDS011;10108;50.142;8.724;2022-10-16T05:16:45;9.93;;;9.00;;
19891;SDS011;10108;50.142;8.724;2022-10-16T05:19:13;10.40;;;9.00;;
19891;SDS011;10108;50.142;8.724;2022-10-16T05:21:39;10.45;;;9.43;;
19891;SDS011;10108;50.142;8.724;2022-10-16T05:24:05;10.43;;;9.20;;
19891;SDS011;10108;50.142;8.724;2022-10-16T05:26:32;10.68;;;9.57;;
19891;SDS011;10108;50.142;8.724;2022-10-16T05:28:58;10.40;;;9.40;;
19891;SDS011;10108;50.142;8.724;2022-10-16T05:31:24;14.05;;;9.40;;
19891;SDS011;10108;50.142;8.724;2022-10-16T05:33:50;10.13;;;9.13;;
19891;SDS011;10108;50.142;8.724;2022-10-16T05:36:16;10.60;;;9.50;;
19891;SDS011;10108;50.142;8.724;2022-10-16T05:38:43;10.55;;;9.40;;
19891;SDS011;10108;50.142;8.724;2022-10-16T05:41:09;11.00;;;9.77;;
19891;SDS011;10108;50.142;8.724;2022-10-16T05:43:36;11.02;;;9.02;;
19891;SDS011;10108;50.142;8.724;2022-10-16T05:46:05;9.75;;;8.75;;
19891;SDS011;10108;50.142;8.724;2022-10-16T05:48:31;10.82;;;8.95;;
19891;SDS011;10108;50.142;8.724;2022-10-16T05:50:59;11.50;;;9.50;;
19891;SDS011;10108;50.142;8.724;2022-10-16T05:53:27;10.60;;;9.50;;
19891;SDS011;10108;50.142;8.724;2022-10-16T05:55:55;9.93;;;8.93;;
19891;SDS011;10108;50.142;8.724;2022-10-16T05:58:22;13.75;;;9.10;;
19891;SDS011;10108;50.142;8.724;2022-10-16T06:00:55;10.40;;;9.02;;
19891;SDS011;10108;50.142;8.724;2022-10-16T06:03:29;13.38;;;9.20;;
19891;SDS011;10108;50.142;8.724;2022-10-16T06:05:55;10.75;;;9.20;;
19891;SDS011;10108;50.142;8.724;2022-10-16T06:08:21;12.23;;;9.40;;
19891;SDS011;10108;50.142;8.724;2022-10-16T06:10:49;10.40;;;9.30;;
19891;SDS011;10108;50.142;8.724;2022-10-16T06:13:25;10.13;;;9.13;;
19891;SDS011;10108;50.142;8.724;2022-10-16T06:15:51;10.13;;;9.00;;
19891;SDS011;10108;50.142;8.724;2022-10-16T06:18:17;10.48;;;9.00;;
19891;SDS011;10108;50.142;8.724;2022-10-16T06:20:43;10.23;;;8.93;;
19891;SDS011;10108;50.142;8.724;2022-10-16T06:23:09;10.10;;;9.07;;
19891;SDS011;10108;50.142;8.724;2022-10-16T06:25:35;10.45;;;8.95;;
19891;SDS011;10108;50.142;8.724;2022-10-16T06:28:02;11.18;;;9.13;;
19891;SDS011;10108;50.142;8.724;2022-10-16T06:30:28;10.23;;;9.23;;
19891;SDS011;10108;50.142;8.724;2022-10-16T06:32:54;12.65;;;9.10;;
19891;SDS011;10108;50.142;8.724;2022-10-16T06:35:20;11.52;;;9.20;;
19891;SDS011;10108;50.142;8.724;2022-10-16T06:37:46;10.32;;;9.07;;
19891;SDS011;10108;50.142;8.724;2022-10-16T06:40:12;10.27;;;9.10;;
19891;SDS011;10108;50.142;8.724;2022-10-16T06:42:40;10.70;;;8.85;;
19891;SDS011;10108;50.142;8.724;2022-10-16T06:45:07;10.48;;;8.85;;
19891;SDS011;10108;50.142;8.724;2022-10-16T06:47:33;9.77;;;8.77;;
19891;SDS011;10108;50.142;8.724;2022-10-16T06:50:00;11.30;;;9.38;;
19891;SDS011;10108;50.142;8.724;2022-10-16T06:52:27;10.18;;;8.75;;
19891;SDS011;10108;50.142;8.724;2022-10-16T06:54:54;12.20;;;8.98;;
19891;SDS011;10108;50.142;8.724;2022-10-16T06:57:20;9.45;;;8.52;;
19891;SDS011;10108;50.142;8.724;2022-10-16T06:59:46;11.15;;;9.82;;
19891;SDS011;10108;50.142;8.724;2022-10-16T07:02:12;12.02;;;10.70;;
19891;SDS011;10108;50.142;8.724;2022-10-16T07:04:38;16.38;;;11.50;;
19891;SDS011;10108;50.142;8.724;2022-10-16T07:07:04;14.98;;;12.65;;
19891;SDS011;10108;50.142;8.724;2022-10-16T07:09:30;16.30;;;12.82;;
19891;SDS011;10108;50.142;8.724;2022-10-16T07:11:57;14.90;;;12.55;;
19891;SDS011;10108;50.142;8.724;2022-10-16T07:14:23;17.10;;;12.70;;
19891;SDS011;10108;50.142;8.724;2022-10-16T07:16:49;17.90;;;12.70;;
19891;SDS011;10108;50.142;8.724;2022-10-16T07:19:15;16.00;;;11.77;;
19891;SDS011;10108;50.142;8.724;2022-10-16T07:21:43;13.70;;;11.52;;
19891;SDS011;10108;50.142;8.724;2022-10-16T07:24:13;16.77;;;12.05;;
19891;SDS011;10108;50.142;8.724;2022-10-16T07:26:41;15.93;;;11.77;;
19891;SDS011;10108;50.142;8.724;2022-10-16T07:29:19;17.92;;;11.73;;
19891;SDS011;10108;50.142;8.724;2022-10-16T07:31:47;16.63;;;11.98;;
19891;SDS011;10108;50.142;8.724;2022-10-16T07:34:14;17.08;;;12.18;;
19891;SDS011;10108;50.142;8.724;2022-10-16T07:36:41;14.27;;;11.90;;
19891;SDS011;10108;50.142;8.724;2022-10-16T07:39:08;15.52;;;12.32;;
19891;SDS011;10108;50.142;8.724;2022-10-16T07:41:34;16.77;;;11.85;;
19891;SDS011;10108;50.142;8.724;2022-10-16T07:44:02;13.82;;;11.77;;
19891;SDS011;10108;50.142;8.724;2022-10-16T07:46:29;14.30;;;12.30;;
19891;SDS011;10108;50.142;8.724;2022-10-16T07:48:56;14.38;;;11.55;;
19891;SDS011;10108;50.142;8.724;2022-10-16T07:51:23;14.00;;;12.48;;
19891;SDS011;10108;50.142;8.724;2022-10-16T07:53:50;16.02;;;12.00;;
19891;SDS011;10108;50.142;8.724;2022-10-16T07:56:17;17.48;;;12.30;;
19891;SDS011;10108;50.142;8.724;2022-10-16T07:58:44;15.07;;;11.55;;
19891;SDS011;10108;50.142;8.724;2022-10-16T08:01:12;15.77;;;12.60;;
19891;SDS011;10108;50.142;8.724;2022-10-16T08:03:43;17.67;;;12.18;;
19891;SDS011;10108;50.142;8.724;2022-10-16T08:06:12;13.15;;;11.75;;
19891;SDS011;10108;50.142;8.724;2022-10-16T08:08:38;15.80;;;12.00;;
19891;SDS011;10108;50.142;8.724;2022-10-16T08:11:04;14.55;;;11.35;;
19891;SDS011;10108;50.142;8.724;2022-10-16T08:13:31;13.52;;;11.40;;
19891;SDS011;10108;50.142;8.724;2022-10-16T08:15:57;13.43;;;11.27;;
19891;SDS011;10108;50.142;8.724;2022-10-16T08:18:23;13.45;;;11.60;;
19891;SDS011;10108;50.142;8.724;2022-10-16T08:20:58;15.15;;;11.75;;
19891;SDS011;10108;50.142;8.724;2022-10-16T08:23:26;13.65;;;11.88;;
19891;SDS011;10108;50.142;8.724;2022-10-16T08:25:53;17.30;;;11.50;;
19891;SDS011;10108;50.142;8.724;2022-10-16T08:28:20;15.02;;;11.70;;
19891;SDS011;10108;50.142;8.724;2022-10-16T08:30:47;12.52;;;11.23;;
19891;SDS011;10108;50.142;8.724;2022-10-16T08:33:13;14.77;;;11.55;;
19891;SDS011;10108;50.142;8.724;2022-10-16T08:35:39;13.40;;;11.20;;
19891;SDS011;10108;50.142;8.724;2022-10-16T08:38:05;14.95;;;11.80;;
19891;SDS011;10108;50.142;8.724;2022-10-16T08:40:33;17.58;;;12.43;;
19891;SDS011;10108;50.142;8.724;2022-10-16T08:51:08;17.38;;;13.25;;
19891;SDS011;10108;50.142;8.724;2022-10-16T08:53:43;15.05;;;13.45;;
19891;SDS011;10108;50.142;8.724;2022-10-16T08:56:14;15.73;;;14.13;;
19891;SDS011;10108;50.142;8.724;2022-10-16T08:58:40;16.08;;;14.38;;
19891;SDS011;10108;50.142;8.724;2022-10-16T09:01:11;18.73;;;14.80;;
19891;SDS011;10108;50.142;8.724;2022-10-16T09:12:40;21.70;;;19.05;;
19891;SDS011;10108;50.142;8.724;2022-10-16T09:15:58;18.42;;;16.45;;
19891;SDS011;10108;50.142;8.724;2022-10-16T09:22:10;17.35;;;15.48;;
19891;SDS011;10108;50.142;8.724;2022-10-16T09:24:41;16.50;;;14.80;;
19891;SDS011;10108;50.142;8.724;2022-10-16T09:27:09;16.10;;;14.52;;
19891;SDS011;10108;50.142;8.724;2022-10-16T09:29:37;16.40;;;14.70;;
19891;SDS011;10108;50.142;8.724;2022-10-16T09:35:03;16.10;;;14.50;;
19891;SDS011;10108;50.142;8.724;2022-10-16T09:37:36;16.73;;;14.38;;
19891;SDS011;10108;50.142;8.724;2022-10-16T09:40:02;16.17;;;14.48;;
19891;SDS011;10108;50.142;8.724;2022-10-16T09:42:32;16.95;;;15.15;;
19891;SDS011;10108;50.142;8.724;2022-10-16T09:45:02;21.23;;;16.02;;
19891;SDS011;10108;50.142;8.724;2022-10-16T09:47:30;17.05;;;15.25;;
19891;SDS011;10108;50.142;8.724;2022-10-16T09:50:02;17.90;;;14.82;;
19891;SDS011;10108;50.142;8.724;2022-10-16T09:52:31;24.17;;;19.25;;
19891;SDS011;10108;50.142;8.724;2022-10-16T09:55:03;28.02;;;21.38;;
19891;SDS011;10108;50.142;8.724;2022-10-16T09:57:49;24.88;;;19.85;;
19891;SDS011;10108;50.142;8.724;2022-10-16T10:00:16;22.00;;;18.55;;
19891;SDS011;10108;50.142;8.724;2022-10-16T10:02:43;20.67;;;18.00;;
19891;SDS011;10108;50.142;8.724;2022-10-16T10:05:23;21.35;;;18.27;;
19891;SDS011;10108;50.142;8.724;2022-10-16T10:08:12;20.15;;;17.98;;
19891;SDS011;10108;50.142;8.724;2022-10-16T10:10:43;19.80;;;17.70;;
19891;SDS011;10108;50.142;8.724;2022-10-16T10:13:20;19.35;;;17.25;;
19891;SDS011;10108;50.142;8.724;2022-10-16T10:15:48;19.20;;;17.13;;
19891;SDS011;10108;50.142;8.724;2022-10-16T10:18:14;18.73;;;16.83;;
19891;SDS011;10108;50.142;8.724;2022-10-16T10:20:56;18.80;;;16.83;;
19891;SDS011;10108;50.142;8.724;2022-10-16T10:23:27;17.98;;;16.17;;
19891;SDS011;10108;50.142;8.724;2022-10-16T10:26:03;17.58;;;15.27;;
19891;SDS011;10108;50.142;8.724;2022-10-16T10:31:26;16.63;;;13.68;;
19891;SDS011;10108;50.142;8.724;2022-10-16T10:36:38;15.60;;;12.88;;
19891;SDS011;10108;50.142;8.724;2022-10-16T10:50:57;20.92;;;15.93;;
19891;SDS011;10108;50.142;8.724;2022-10-16T10:53:41;25.42;;;17.50;;
19891;SDS011;10108;50.142;8.724;2022-10-16T10:56:25;27.45;;;18.63;;
19891;SDS011;10108;50.142;8.724;2022-10-16T11:01:49;23.30;;;18.23;;
19891;SDS011;10108;50.142;8.724;2022-10-16T11:07:04;24.67;;;18.38;;
19891;SDS011;10108;50.142;8.724;2022-10-16T11:09:36;26.92;;;18.77;;
19891;SDS011;10108;50.142;8.724;2022-10-16T11:14:55;22.13;;;17.70;;
19891;SDS011;10108;50.142;8.724;2022-10-16T11:17:52;22.27;;;16.00;;
19891;SDS011;10108;50.142;8.724;2022-10-16T11:20:32;20.73;;;17.48;;
19891;SDS011;10108;50.142;8.724;2022-10-16T11:23:16;22.58;;;18.58;;
19891;SDS011;10108;50.142;8.724;2022-10-16T11:25:44;24.98;;;17.85;;
19891;SDS011;10108;50.142;8.724;2022-10-16T11:28:16;20.98;;;16.98;;
19891;SDS011;10108;50.142;8.724;2022-10-16T11:30:54;20.00;;;16.83;;
19891;SDS011;10108;50.142;8.724;2022-10-16T11:33:28;22.92;;;16.77;;
19891;SDS011;10108;50.142;8.724;2022-10-16T11:36:12;17.92;;;15.80;;
19891;SDS011;10108;50.142;8.724;2022-10-16T11:41:31;18.15;;;15.25;;
19891;SDS011;10108;50.142;8.724;2022-10-16T11:49:49;17.85;;;15.00;;
19891;SDS011;10108;50.142;8.724;2022-10-16T11:55:14;17.48;;;15.23;;
19891;SDS011;10108;50.142;8.724;2022-10-16T11:57:46;15.77;;;14.18;;
19891;SDS011;10108;50.142;8.724;2022-10-16T12:00:24;20.48;;;14.55;;
19891;SDS011;10108;50.142;8.724;2022-10-16T12:02:59;14.23;;;12.38;;
19891;SDS011;10108;50.142;8.724;2022-10-16T12:08:27;15.35;;;13.68;;
19891;SDS011;10108;50.142;8.724;2022-10-16T12:10:54;14.95;;;13.40;;
19891;SDS011;10108;50.142;8.724;2022-10-16T12:13:35;14.45;;;12.95;;
19891;SDS011;10108;50.142;8.724;2022-10-16T12:16:04;15.85;;;12.50;;
19891;SDS011;10108;50.142;8.724;2022-10-16T12:18:32;19.70;;;12.57;;
19891;SDS011;10108;50.142;8.724;2022-10-16T12:20:58;14.50;;;12.55;;
19891;SDS011;10108;50.142;8.724;2022-10-16T12:23:30;14.20;;;11.73;;
19891;SDS011;10108;50.142;8.724;2022-10-16T12:25:59;13.68;;;11.10;;
19891;SDS011;10108;50.142;8.724;2022-10-16T12:28:31;12.95;;;11.65;;
19891;SDS011;10108;50.142;8.724;2022-10-16T12:30:59;11.68;;;10.43;;
19891;SDS011;10108;50.142;8.724;2022-10-16T12:33:28;11.57;;;10.35;;
19891;SDS011;10108;50.142;8.724;2022-10-16T12:35:56;12.70;;;10.35;;
19891;SDS011;10108;50.142;8.724;2022-10-16T12:38:26;12.65;;;10.35;;
19891;SDS011;10108;50.142;8.724;2022-10-16T12:40:59;11.85;;;10.65;;
19891;SDS011;10108;50.142;8.724;2022-10-16T12:43:39;12.02;;;9.82;;
19891;SDS011;10108;50.142;8.724;2022-10-16T12:48:40;10.85;;;9.80;;
19891;SDS011;10108;50.142;8.724;2022-10-16T12:51:33;11.05;;;9.75;;
19891;SDS011;10108;50.142;8.724;2022-10-16T12:55:18;12.00;;;10.25;;
19891;SDS011;10108;50.142;8.724;2022-10-16T13:06:13;11.43;;;10.18;;
19891;SDS011;10108;50.142;8.724;2022-10-16T13:12:02;10.70;;;9.60;;
19891;SDS011;10108;50.142;8.724;2022-10-16T13:17:45;11.40;;;9.98;;
19891;SDS011;10108;50.142;8.724;2022-10-16T13:20:34;10.18;;;9.18;;
19891;SDS011;10108;50.142;8.724;2022-10-16T13:23:13;11.40;;;10.20;;
19891;SDS011;10108;50.142;8.724;2022-10-16T13:28:28;11.25;;;9.98;;
19891;SDS011;10108;50.142;8.724;2022-10-16T13:30:58;11.98;;;10.30;;
19891;SDS011;10108;50.142;8.724;2022-10-16T13:33:36;11.00;;;9.90;;
19891;SDS011;10108;50.142;8.724;2022-10-16T13:36:04;11.00;;;9.90;;
19891;SDS011;10108;50.142;8.724;2022-10-16T13:38:32;12.20;;;9.65;;
19891;SDS011;10108;50.142;8.724;2022-10-16T13:41:01;10.82;;;9.43;;
19891;SDS011;10108;50.142;8.724;2022-10-16T13:46:01;10.50;;;9.48;;
19891;SDS011;10108;50.142;8.724;2022-10-16T13:48:32;11.90;;;10.00;;
19891;SDS011;10108;50.142;8.724;2022-10-16T13:53:26;11.80;;;9.68;;
19891;SDS011;10108;50.142;8.724;2022-10-16T13:55:55;10.70;;;9.60;;
19891;SDS011;10108;50.142;8.724;2022-10-16T13:58:22;11.60;;;10.02;;
19891;SDS011;10108;50.142;8.724;2022-10-16T14:03:42;11.45;;;10.13;;
19891;SDS011;10108;50.142;8.724;2022-10-16T14:06:19;11.07;;;9.55;;
19891;SDS011;10108;50.142;8.724;2022-10-16T14:11:27;10.90;;;9.80;;
19891;SDS011;10108;50.142;8.724;2022-10-16T14:13:54;10.80;;;9.70;;
19891;SDS011;10108;50.142;8.724;2022-10-16T14:16:21;10.88;;;9.43;;
19891;SDS011;10108;50.142;8.724;2022-10-16T14:18:55;10.43;;;9.43;;
19891;SDS011;10108;50.142;8.724;2022-10-16T14:21:22;10.50;;;9.40;;
19891;SDS011;10108;50.142;8.724;2022-10-16T14:23:48;14.18;;;9.50;;
19891;SDS011;10108;50.142;8.724;2022-10-16T14:26:15;12.60;;;9.40;;
19891;SDS011;10108;50.142;8.724;2022-10-16T14:28:44;12.30;;;9.63;;
19891;SDS011;10108;50.142;8.724;2022-10-16T14:31:31;10.65;;;9.18;;
19891;SDS011;10108;50.142;8.724;2022-10-16T14:33:59;10.82;;;9.73;;
19891;SDS011;10108;50.142;8.724;2022-10-16T14:36:26;10.43;;;9.35;;
19891;SDS011;10108;50.142;8.724;2022-10-16T14:41:28;10.80;;;9.40;;
19891;SDS011;10108;50.142;8.724;2022-10-16T14:43:56;10.57;;;9.52;;
19891;SDS011;10108;50.142;8.724;2022-10-16T14:46:31;10.45;;;9.35;;
19891;SDS011;10108;50.142;8.724;2022-10-16T14:49:02;11.57;;;9.90;;
19891;SDS011;10108;50.142;8.724;2022-10-16T14:51:39;10.77;;;9.73;;
19891;SDS011;10108;50.142;8.724;2022-10-16T14:54:11;11.48;;;9.70;;
19891;SDS011;10108;50.142;8.724;2022-10-16T14:56:51;10.75;;;9.65;;
19891;SDS011;10108;50.142;8.724;2022-10-16T14:59:27;11.30;;;10.07;;
19891;SDS011;10108;50.142;8.724;2022-10-16T15:01:57;11.20;;;10.00;;
19891;SDS011;10108;50.142;8.724;2022-10-16T15:04:24;11.52;;;9.75;;
19891;SDS011;10108;50.142;8.724;2022-10-16T15:06:50;10.68;;;9.57;;
19891;SDS011;10108;50.142;8.724;2022-10-16T15:09:16;10.73;;;9.63;;
19891;SDS011;10108;50.142;8.724;2022-10-16T15:11:42;10.70;;;9.55;;
19891;SDS011;10108;50.142;8.724;2022-10-16T15:14:12;10.02;;;9.02;;
19891;SDS011;10108;50.142;8.724;2022-10-16T15:16:39;13.00;;;9.40;;
19891;SDS011;10108;50.142;8.724;2022-10-16T15:19:05;11.05;;;9.32;;
19891;SDS011;10108;50.142;8.724;2022-10-16T15:21:32;11.35;;;9.60;;
19891;SDS011;10108;50.142;8.724;2022-10-16T15:23:58;10.65;;;9.55;;
19891;SDS011;10108;50.142;8.724;2022-10-16T15:26:26;10.63;;;9.43;;
19891;SDS011;10108;50.142;8.724;2022-10-16T15:28:54;11.88;;;9.45;;
19891;SDS011;10108;50.142;8.724;2022-10-16T15:31:21;10.85;;;9.73;;
19891;SDS011;10108;50.142;8.724;2022-10-16T15:33:51;14.18;;;9.80;;
19891;SDS011;10108;50.142;8.724;2022-10-16T15:36:25;10.77;;;9.68;;
19891;SDS011;10108;50.142;8.724;2022-10-16T15:38:52;10.80;;;9.50;;
19891;SDS011;10108;50.142;8.724;2022-10-16T15:41:19;11.45;;;9.48;;
19891;SDS011;10108;50.142;8.724;2022-10-16T15:43:47;11.45;;;9.95;;
19891;SDS011;10108;50.142;8.724;2022-10-16T15:46:14;12.50;;;10.00;;
19891;SDS011;10108;50.142;8.724;2022-10-16T15:48:43;11.77;;;9.68;;
19891;SDS011;10108;50.142;8.724;2022-10-16T15:51:09;13.98;;;9.80;;
19891;SDS011;10108;50.142;8.724;2022-10-16T15:53:35;10.77;;;9.32;;
19891;SDS011;10108;50.142;8.724;2022-10-16T15:56:04;10.75;;;9.43;;
19891;SDS011;10108;50.142;8.724;2022-10-16T15:58:31;10.70;;;9.60;;
19891;SDS011;10108;50.142;8.724;2022-10-16T16:00:57;11.68;;;9.63;;
19891;SDS011;10108;50.142;8.724;2022-10-16T16:03:29;10.80;;;9.70;;
19891;SDS011;10108;50.142;8.724;2022-10-16T16:05:56;10.13;;;9.00;;
19891;SDS011;10108;50.142;8.724;2022-10-16T16:08:22;10.80;;;9.25;;
19891;SDS011;10108;50.142;8.724;2022-10-16T16:11:02;10.38;;;9.25;;
19891;SDS011;10108;50.142;8.724;2022-10-16T16:13:36;12.07;;;9.10;;
19891;SDS011;10108;50.142;8.724;2022-10-16T16:16:06;12.23;;;10.30;;
19891;SDS011;10108;50.142;8.724;2022-10-16T16:18:33;11.32;;;10.15;;
19891;SDS011;10108;50.142;8.724;2022-10-16T16:20:59;13.32;;;10.18;;
19891;SDS011;10108;50.142;8.724;2022-10-16T16:23:26;13.00;;;9.93;;
19891;SDS011;10108;50.142;8.724;2022-10-16T16:26:11;13.68;;;10.18;;
19891;SDS011;10108;50.142;8.724;2022-10-16T16:28:49;11.23;;;9.90;;
19891;SDS011;10108;50.142;8.724;2022-10-16T16:31:15;14.95;;;11.80;;
19891;SDS011;10108;50.142;8.724;2022-10-16T16:33:41;16.60;;;12.80;;
19891;SDS011;10108;50.142;8.724;2022-10-16T16:36:08;15.23;;;12.35;;